Time;durP1;ratioP1;P1;durP2;ratioP2;P2;SDS_P1;SDS_P2;PMS_P1;PMS_P2;Temp;Humidity;BMP_temperature;BMP_pressure;BME280_temperature;BME280_humidity;BME280_pressure;Samples;Min_cycle;Max_cycle;Signal;HPM_P1;HPM_P2
2021/01/05 00:01:02;;;;;;;;;;;4.20;95.50;;;;;;5060905;28;19920;-84
2021/01/05 00:03:27;;;;;;;;;;;4.20;95.60;;;;;;5061198;28;19912;-84
2021/01/05 00:05:53;;;;;;;;;;;4.20;95.60;;;;;;5061302;28;20287;-83
2021/01/05 00:08:18;;;;;;;;;;;4.30;95.60;;;;;;5060919;28;20352;-83
2021/01/05 00:10:44;;;;;;;;;;;4.20;95.50;;;;;;5078071;28;19919;-85
2021/01/05 00:13:09;;;;;;;;;;;4.20;95.50;;;;;;5061384;28;19916;-84
2021/01/05 00:15:35;;;;;;;;;;;4.20;95.60;;;;;;5078040;28;20309;-85
2021/01/05 00:18:12;;;;;;;;;;;4.20;95.60;;;;;;5077782;28;19920;-85
2021/01/05 00:20:38;;;;;;;;;;;4.20;95.60;;;;;;5057876;28;19912;-85
2021/01/05 00:23:03;;;;;;;;;;;4.20;95.60;;;;;;5057503;28;19935;-84
2021/01/05 00:25:29;;;;;;;;;;;4.20;95.50;;;;;;5077735;28;19912;-84
2021/01/05 00:27:54;;;;;;;;;;;4.30;95.60;;;;;;5057560;28;20382;-83
2021/01/05 00:30:22;;;;;;;;;;;4.20;95.50;;;;;;5077591;28;19996;-83
2021/01/05 00:32:48;;;;;;;;;;;4.20;95.50;;;;;;5078045;28;19969;-83
2021/01/05 00:35:15;;;;;;;;;;;4.20;95.60;;;;;;5077655;28;19912;-83
2021/01/05 00:37:41;;;;;;;;;;;4.30;95.60;;;;;;5077242;28;19912;-83
2021/01/05 00:40:07;;;;;;;;;;;4.20;95.60;;;;;;5077717;28;20389;-83
2021/01/05 00:42:33;;;;;;;;;;;4.20;95.60;;;;;;5095603;28;19917;-83
2021/01/05 00:44:58;;;;;;;;;;;4.20;95.50;;;;;;5077542;28;20280;-83
2021/01/05 00:47:24;;;;;;;;;;;4.20;95.40;;;;;;5095343;28;20013;-84
2021/01/05 00:49:49;;;;;;;;;;;4.20;95.40;;;;;;5077403;28;19919;-84
2021/01/05 00:52:15;;;;;;;;;;;4.10;95.40;;;;;;5077306;28;19908;-83
2021/01/05 00:54:40;;;;;;;;;;;4.20;95.50;;;;;;5058186;28;19962;-83
2021/01/05 00:57:11;;;;;;;;;;;4.10;95.40;;;;;;5077049;28;19959;-83
2021/01/05 00:59:37;;;;;;;;;;;4.20;95.40;;;;;;5076284;28;19996;-83
2021/01/05 01:02:03;;;;;;;;;;;4.20;95.50;;;;;;5076758;28;19955;-83
2021/01/05 01:04:28;;;;;;;;;;;4.20;95.50;;;;;;5077168;28;19916;-83
2021/01/05 01:06:54;;;;;;;;;;;4.20;95.50;;;;;;5060136;28;19912;-83
2021/01/05 01:09:20;;;;;;;;;;;4.20;95.50;;;;;;5067638;28;19986;-83
2021/01/05 01:12:15;;;;;;;;;;;4.20;95.50;;;;;;5056815;28;19916;-83
2021/01/05 01:14:41;;;;;;;;;;;4.20;95.60;;;;;;5074689;28;19912;-83
2021/01/05 01:17:06;;;;;;;;;;;4.20;95.60;;;;;;5094318;28;20446;-83
2021/01/05 01:19:32;;;;;;;;;;;4.20;95.60;;;;;;5076712;28;19944;-84
2021/01/05 01:21:58;;;;;;;;;;;4.10;95.50;;;;;;5076235;28;19916;-83
2021/01/05 01:24:25;;;;;;;;;;;4.10;95.60;;;;;;5059998;28;19919;-83
2021/01/05 01:26:50;;;;;;;;;;;4.20;95.60;;;;;;5076348;28;19916;-83
2021/01/05 01:29:17;;;;;;;;;;;4.20;95.50;;;;;;5076510;28;20260;-83
2021/01/05 01:31:42;;;;;;;;;;;4.20;95.60;;;;;;5094837;28;19995;-83
2021/01/05 01:34:08;;;;;;;;;;;4.10;95.60;;;;;;5076484;28;20384;-83
2021/01/05 01:36:33;;;;;;;;;;;4.20;95.60;;;;;;5094527;28;19955;-83
2021/01/05 01:39:00;;;;;;;;;;;4.10;95.60;;;;;;5059842;28;19951;-83
2021/01/05 01:41:26;;;;;;;;;;;4.20;95.60;;;;;;5056729;28;19912;-83
2021/01/05 01:43:51;;;;;;;;;;;4.20;95.60;;;;;;5075745;28;19954;-83
2021/01/05 01:46:17;;;;;;;;;;;4.20;95.70;;;;;;5076216;28;20036;-83
2021/01/05 01:48:43;;;;;;;;;;;4.20;95.70;;;;;;5076314;28;20307;-83
2021/01/05 01:51:10;;;;;;;;;;;4.20;95.70;;;;;;5076171;28;19916;-83
2021/01/05 01:53:45;;;;;;;;;;;4.10;95.70;;;;;;5094330;28;19908;-84
2021/01/05 01:56:26;;;;;;;;;;;4.20;95.80;;;;;;5094293;28;19999;-84
2021/01/05 01:58:57;;;;;;;;;;;4.20;95.80;;;;;;5094645;28;20290;-84
2021/01/05 02:01:23;;;;;;;;;;;4.20;95.70;;;;;;5094157;28;19916;-84
2021/01/05 02:04:01;;;;;;;;;;;4.20;95.70;;;;;;5094068;28;19908;-84
2021/01/05 02:06:42;;;;;;;;;;;4.20;95.70;;;;;;5075905;28;19916;-84
2021/01/05 02:09:27;;;;;;;;;;;4.20;95.70;;;;;;5065012;28;20007;-84
2021/01/05 02:12:11;;;;;;;;;;;4.20;95.60;;;;;;5069099;28;20003;-84
2021/01/05 02:14:48;;;;;;;;;;;4.20;95.70;;;;;;5069069;28;20318;-84
2021/01/05 02:17:33;;;;;;;;;;;4.20;95.70;;;;;;5073441;28;20277;-84
2021/01/05 02:20:15;;;;;;;;;;;4.20;95.70;;;;;;5091544;28;19912;-84
2021/01/05 02:25:49;;;;;;;;;;;4.20;95.80;;;;;;5031941;28;19932;-88
2021/01/05 02:28:16;;;;;;;;;;;4.20;95.70;;;;;;5015211;28;19999;-89
2021/01/05 02:30:46;;;;;;;;;;;4.20;95.70;;;;;;5014978;28;20016;-88
2021/01/05 02:33:27;;;;;;;;;;;4.20;95.80;;;;;;5015568;28;19920;-89
2021/01/05 02:35:56;;;;;;;;;;;4.20;95.70;;;;;;5002791;28;19968;-89
2021/01/05 02:38:21;;;;;;;;;;;4.20;95.50;;;;;;5016349;28;19920;-88
2021/01/05 02:41:05;;;;;;;;;;;4.20;95.60;;;;;;5016101;28;19913;-88
2021/01/05 02:44:12;;;;;;;;;;;4.20;95.60;;;;;;5016525;28;19909;-89
2021/01/05 02:52:50;;;;;;;;;;;4.20;95.70;;;;;;5031207;28;19916;-89
2021/01/05 02:55:35;;;;;;;;;;;4.20;95.70;;;;;;5003971;28;19909;-88
2021/01/05 03:01:27;;;;;;;;;;;4.20;95.80;;;;;;5003500;28;20015;-87
2021/01/05 03:03:53;;;;;;;;;;;4.20;95.70;;;;;;5018456;28;19917;-88
2021/01/05 03:06:27;;;;;;;;;;;4.20;95.70;;;;;;5000230;28;19990;-89
2021/01/05 03:09:11;;;;;;;;;;;4.20;95.50;;;;;;5016418;28;20027;-89
2021/01/05 03:11:54;;;;;;;;;;;4.20;95.70;;;;;;5015999;28;19909;-88
2021/01/05 03:14:41;;;;;;;;;;;4.20;95.60;;;;;;5022472;28;19935;-88
2021/01/05 03:17:33;;;;;;;;;;;4.20;95.70;;;;;;5005591;28;19920;-88
2021/01/05 03:20:08;;;;;;;;;;;4.20;95.70;;;;;;5005048;28;19914;-88
2021/01/05 03:22:36;;;;;;;;;;;4.20;95.60;;;;;;5038614;28;19917;-88
2021/01/05 03:25:04;;;;;;;;;;;4.20;95.60;;;;;;5021938;28;19917;-88
2021/01/05 03:27:30;;;;;;;;;;;4.20;95.70;;;;;;5009755;28;19913;-88
2021/01/05 03:30:19;;;;;;;;;;;4.20;95.70;;;;;;5019573;28;19920;-88
2021/01/05 03:32:44;;;;;;;;;;;4.20;95.70;;;;;;5014147;28;19909;-88
2021/01/05 03:35:10;;;;;;;;;;;4.20;95.70;;;;;;5019243;28;19920;-88
2021/01/05 03:37:36;;;;;;;;;;;4.20;95.70;;;;;;5002789;28;20372;-89
2021/01/05 03:40:02;;;;;;;;;;;4.20;95.70;;;;;;5004516;28;19923;-88
2021/01/05 03:42:28;;;;;;;;;;;4.20;95.70;;;;;;5004854;28;19909;-91
2021/01/05 03:44:53;;;;;;;;;;;4.20;95.60;;;;;;5001704;28;19935;-92
2021/01/05 03:47:19;;;;;;;;;;;4.20;95.50;;;;;;5004320;28;20450;-91
2021/01/05 03:49:44;;;;;;;;;;;4.20;95.50;;;;;;5019164;28;20383;-90
2021/01/05 03:52:10;;;;;;;;;;;4.20;95.50;;;;;;5023252;28;19959;-90
2021/01/05 03:54:35;;;;;;;;;;;4.20;95.50;;;;;;5002916;28;20027;-91
2021/01/05 03:57:01;;;;;;;;;;;4.20;95.50;;;;;;5019288;28;19921;-90
2021/01/05 03:59:26;;;;;;;;;;;4.20;95.50;;;;;;5000967;28;19913;-91
2021/01/05 04:02:17;;;;;;;;;;;4.20;95.60;;;;;;5002658;28;19956;-91
2021/01/05 04:04:42;;;;;;;;;;;4.20;95.50;;;;;;4999257;28;19963;-91
2021/01/05 04:07:45;;;;;;;;;;;4.20;95.50;;;;;;4995669;28;19952;-90
2021/01/05 04:10:11;;;;;;;;;;;4.20;95.60;;;;;;5019335;28;19975;-91
2021/01/05 04:12:36;;;;;;;;;;;4.20;95.50;;;;;;5003297;28;20360;-90
2021/01/05 04:15:04;;;;;;;;;;;4.20;95.50;;;;;;5024771;28;20353;-91
2021/01/05 04:17:29;;;;;;;;;;;4.20;95.60;;;;;;5016947;28;19924;-91
2021/01/05 04:19:55;;;;;;;;;;;4.20;95.60;;;;;;5005043;28;19917;-90
2021/01/05 04:22:20;;;;;;;;;;;4.20;95.50;;;;;;4999697;28;19953;-91
2021/01/05 04:24:46;;;;;;;;;;;4.20;95.40;;;;;;5002735;28;19921;-87
2021/01/05 04:27:11;;;;;;;;;;;4.20;95.40;;;;;;4993445;28;19917;-91
2021/01/05 04:29:37;;;;;;;;;;;4.20;95.40;;;;;;5006371;28;20017;-91
2021/01/05 04:32:03;;;;;;;;;;;4.20;95.30;;;;;;4988957;28;19921;-90
2021/01/05 04:34:28;;;;;;;;;;;4.20;95.30;;;;;;4986645;28;19916;-90
2021/01/05 04:36:54;;;;;;;;;;;4.20;95.40;;;;;;4995414;28;20360;-91
2021/01/05 04:39:19;;;;;;;;;;;4.20;95.50;;;;;;4976159;28;20285;-91
2021/01/05 04:41:45;;;;;;;;;;;4.20;95.50;;;;;;4979770;28;19925;-90
2021/01/05 04:44:12;;;;;;;;;;;4.20;95.60;;;;;;5005771;28;20004;-91
2021/01/05 04:46:58;;;;;;;;;;;4.20;95.60;;;;;;4995662;28;19910;-90
2021/01/05 04:49:29;;;;;;;;;;;4.20;95.60;;;;;;4996266;28;19910;-89
2021/01/05 04:52:01;;;;;;;;;;;4.20;95.70;;;;;;4999891;28;19913;-90
2021/01/05 04:54:30;;;;;;;;;;;4.20;95.60;;;;;;5000040;28;20004;-90
2021/01/05 04:57:14;;;;;;;;;;;4.20;95.70;;;;;;4997021;28;19941;-87
2021/01/05 04:59:43;;;;;;;;;;;4.20;95.70;;;;;;4979834;28;20278;-87
2021/01/05 05:02:16;;;;;;;;;;;4.30;95.70;;;;;;4994830;28;20272;-87
2021/01/05 05:04:48;;;;;;;;;;;4.20;95.70;;;;;;4995047;28;19917;-86
2021/01/05 05:07:24;;;;;;;;;;;4.20;95.70;;;;;;5011135;28;19910;-86
2021/01/05 05:09:59;;;;;;;;;;;4.30;95.80;;;;;;4989172;28;19925;-87
2021/01/05 05:12:25;;;;;;;;;;;4.30;95.70;;;;;;5014203;28;20423;-87
2021/01/05 05:15:09;;;;;;;;;;;4.30;95.70;;;;;;4998253;28;19953;-87
2021/01/05 05:17:34;;;;;;;;;;;4.30;95.70;;;;;;4975318;28;19914;-86
2021/01/05 05:20:09;;;;;;;;;;;4.30;95.70;;;;;;5014468;28;19913;-87
2021/01/05 05:22:46;;;;;;;;;;;4.30;95.70;;;;;;5014247;28;19914;-87
2021/01/05 05:25:14;;;;;;;;;;;4.30;95.70;;;;;;5013281;28;19971;-87
2021/01/05 05:27:43;;;;;;;;;;;4.20;95.70;;;;;;5017632;28;20284;-87
2021/01/05 05:30:13;;;;;;;;;;;4.20;95.70;;;;;;5014039;28;19913;-87
2021/01/05 05:32:45;;;;;;;;;;;4.30;95.80;;;;;;5012293;28;19980;-87
2021/01/05 05:35:37;;;;;;;;;;;4.30;95.80;;;;;;5019574;28;19910;-87
2021/01/05 05:38:07;;;;;;;;;;;4.30;95.80;;;;;;5015335;28;19917;-87
2021/01/05 05:40:51;;;;;;;;;;;4.20;95.80;;;;;;5030194;28;19910;-87
2021/01/05 05:43:28;;;;;;;;;;;4.30;95.80;;;;;;5002559;28;20364;-87
2021/01/05 05:46:02;;;;;;;;;;;4.20;95.70;;;;;;5018721;28;19964;-91
2021/01/05 05:48:54;;;;;;;;;;;4.30;95.80;;;;;;5010783;28;19945;-88
2021/01/05 05:51:41;;;;;;;;;;;4.30;95.80;;;;;;5017839;28;20363;-87
2021/01/05 05:54:14;;;;;;;;;;;4.30;95.70;;;;;;5004659;28;19909;-88
2021/01/05 05:56:46;;;;;;;;;;;4.20;95.60;;;;;;5003046;28;19999;-88
2021/01/05 05:59:13;;;;;;;;;;;4.20;95.60;;;;;;5035608;28;19920;-85
2021/01/05 06:01:39;;;;;;;;;;;4.30;95.70;;;;;;5017267;28;19920;-88
2021/01/05 06:04:07;;;;;;;;;;;4.30;95.80;;;;;;5002763;28;20007;-89
2021/01/05 06:06:33;;;;;;;;;;;4.30;95.80;;;;;;5016650;28;19948;-89
2021/01/05 06:08:58;;;;;;;;;;;4.30;95.80;;;;;;5016644;28;19910;-89
2021/01/05 06:11:24;;;;;;;;;;;4.30;95.70;;;;;;4999829;28;20430;-89
2021/01/05 06:13:53;;;;;;;;;;;4.30;95.60;;;;;;5004566;28;20334;-88
2021/01/05 06:16:37;;;;;;;;;;;4.30;95.60;;;;;;5025445;28;19952;-89
2021/01/05 06:19:05;;;;;;;;;;;4.30;95.50;;;;;;5014325;28;19931;-88
2021/01/05 06:21:34;;;;;;;;;;;4.30;95.60;;;;;;5018843;28;19913;-87
2021/01/05 06:24:00;;;;;;;;;;;4.30;95.60;;;;;;5012557;28;20380;-88
2021/01/05 06:26:25;;;;;;;;;;;4.30;95.50;;;;;;4994353;28;19921;-89
2021/01/05 06:28:51;;;;;;;;;;;4.30;95.50;;;;;;4988040;28;19953;-87
2021/01/05 06:31:16;;;;;;;;;;;4.30;95.50;;;;;;4992315;28;19973;-87
2021/01/05 06:33:42;;;;;;;;;;;4.30;95.50;;;;;;4981054;28;19937;-87
2021/01/05 06:36:08;;;;;;;;;;;4.30;95.50;;;;;;5006074;28;20320;-88
2021/01/05 06:38:34;;;;;;;;;;;4.30;95.50;;;;;;4982075;28;19918;-88
2021/01/05 06:40:59;;;;;;;;;;;4.30;95.50;;;;;;4979601;28;19924;-88
2021/01/05 06:43:25;;;;;;;;;;;4.30;95.40;;;;;;4993469;28;20272;-87
2021/01/05 06:45:51;;;;;;;;;;;4.20;95.40;;;;;;4994106;28;20357;-87
2021/01/05 06:48:16;;;;;;;;;;;4.30;95.50;;;;;;5012818;28;20365;-88
2021/01/05 06:50:42;;;;;;;;;;;4.30;95.60;;;;;;4981154;28;19980;-87
2021/01/05 06:53:07;;;;;;;;;;;4.30;95.60;;;;;;4993106;28;20004;-90
2021/01/05 06:55:33;;;;;;;;;;;4.30;95.50;;;;;;4993146;28;20033;-89
2021/01/05 06:57:58;;;;;;;;;;;4.30;95.50;;;;;;4977824;28;19922;-89
2021/01/05 07:00:25;;;;;;;;;;;4.30;95.40;;;;;;4992646;28;19918;-89
2021/01/05 07:02:51;;;;;;;;;;;4.30;95.40;;;;;;4997217;28;20369;-89
2021/01/05 07:05:17;;;;;;;;;;;4.30;95.40;;;;;;4989808;28;19910;-88
2021/01/05 07:07:43;;;;;;;;;;;4.30;95.40;;;;;;5021258;28;20124;-87
2021/01/05 07:10:09;;;;;;;;;;;4.30;95.40;;;;;;4997402;28;19964;-87
2021/01/05 07:12:35;;;;;;;;;;;4.30;95.40;;;;;;4997722;28;19910;-88
2021/01/05 07:15:05;;;;;;;;;;;4.30;95.40;;;;;;4984110;28;19942;-88
2021/01/05 07:17:30;;;;;;;;;;;4.30;95.30;;;;;;5005597;28;19913;-88
2021/01/05 07:19:56;;;;;;;;;;;4.30;95.40;;;;;;5002020;28;19979;-88
2021/01/05 07:22:24;;;;;;;;;;;4.30;95.40;;;;;;4974172;28;19921;-88
2021/01/05 07:24:50;;;;;;;;;;;4.30;95.40;;;;;;5008676;28;20016;-88
2021/01/05 07:27:16;;;;;;;;;;;4.30;95.40;;;;;;4998554;28;19976;-88
2021/01/05 07:29:41;;;;;;;;;;;4.30;95.40;;;;;;5007416;28;20336;-87
2021/01/05 07:32:07;;;;;;;;;;;4.30;95.50;;;;;;5000348;28;19914;-87
2021/01/05 07:34:39;;;;;;;;;;;4.30;95.50;;;;;;5005119;28;19925;-89
2021/01/05 07:37:07;;;;;;;;;;;4.30;95.50;;;;;;5012030;28;19964;-90
2021/01/05 07:39:33;;;;;;;;;;;4.30;95.50;;;;;;5016038;28;19910;-90
2021/01/05 07:42:18;;;;;;;;;;;4.30;95.50;;;;;;5014226;28;20074;-90
2021/01/05 07:44:47;;;;;;;;;;;4.30;95.40;;;;;;5012240;28;19909;-90
2021/01/05 07:47:16;;;;;;;;;;;4.30;95.40;;;;;;5012105;28;19922;-90
2021/01/05 07:49:43;;;;;;;;;;;4.30;95.40;;;;;;5014223;28;19971;-90
2021/01/05 07:52:18;;;;;;;;;;;4.30;95.40;;;;;;4997355;28;20376;-90
2021/01/05 07:54:44;;;;;;;;;;;4.30;95.40;;;;;;5012191;28;19917;-91
2021/01/05 07:57:09;;;;;;;;;;;4.30;95.50;;;;;;4996372;28;19921;-90
2021/01/05 07:59:35;;;;;;;;;;;4.40;95.60;;;;;;4996379;28;20354;-90
2021/01/05 08:02:00;;;;;;;;;;;4.30;95.60;;;;;;5013780;28;20258;-91
2021/01/05 08:04:26;;;;;;;;;;;4.40;95.70;;;;;;4999481;28;20277;-91
2021/01/05 08:06:52;;;;;;;;;;;4.40;95.60;;;;;;4999166;28;19913;-91
2021/01/05 08:09:19;;;;;;;;;;;4.40;95.70;;;;;;5012748;28;19914;-90
2021/01/05 08:11:45;;;;;;;;;;;4.40;95.70;;;;;;4997493;28;19960;-90
2021/01/05 08:14:10;;;;;;;;;;;4.40;95.70;;;;;;4991841;28;20371;-90
2021/01/05 08:16:36;;;;;;;;;;;4.40;95.70;;;;;;5004606;28;19925;-87
2021/01/05 08:19:01;;;;;;;;;;;4.40;95.80;;;;;;5021183;28;19913;-87
2021/01/05 08:21:27;;;;;;;;;;;4.40;96.00;;;;;;5003505;28;19918;-87
2021/01/05 08:23:56;;;;;;;;;;;4.40;95.80;;;;;;4999703;28;19976;-87
2021/01/05 08:26:21;;;;;;;;;;;4.40;95.80;;;;;;4996922;28;19922;-87
2021/01/05 08:28:47;;;;;;;;;;;4.50;95.80;;;;;;5000913;28;20287;-88
2021/01/05 08:31:13;;;;;;;;;;;4.50;95.70;;;;;;4999633;28;19973;-88
2021/01/05 08:33:39;;;;;;;;;;;4.40;95.70;;;;;;5019890;28;20005;-88
2021/01/05 08:36:04;;;;;;;;;;;4.50;95.70;;;;;;5035236;28;19948;-88
2021/01/05 08:38:30;;;;;;;;;;;4.50;95.70;;;;;;5008492;23;19929;-92
2021/01/05 08:40:55;;;;;;;;;;;4.50;95.70;;;;;;5006442;28;19975;-92
2021/01/05 08:43:21;;;;;;;;;;;4.50;95.70;;;;;;4999178;28;20118;-93
2021/01/05 08:45:47;;;;;;;;;;;4.50;95.60;;;;;;5015021;28;19919;-93
2021/01/05 08:48:12;;;;;;;;;;;4.40;95.60;;;;;;5028971;28;20399;-93
2021/01/05 08:50:38;;;;;;;;;;;4.50;95.50;;;;;;5007261;28;20004;-93
2021/01/05 08:53:08;;;;;;;;;;;4.50;95.50;;;;;;5005946;28;19917;-90
2021/01/05 08:55:37;;;;;;;;;;;4.50;95.50;;;;;;5012075;28;19909;-92
2021/01/05 08:58:03;;;;;;;;;;;4.50;95.60;;;;;;5020113;28;19920;-94
2021/01/05 09:00:29;;;;;;;;;;;4.40;95.60;;;;;;5012705;28;20467;-92
2021/01/05 09:02:54;;;;;;;;;;;4.50;95.60;;;;;;5016202;28;19917;-92
2021/01/05 09:05:20;;;;;;;;;;;4.50;95.60;;;;;;5014031;28;19913;-92
2021/01/05 09:07:45;;;;;;;;;;;4.50;95.60;;;;;;5029874;28;19952;-88
2021/01/05 09:10:37;;;;;;;;;;;4.50;95.70;;;;;;5019809;28;19952;-91
2021/01/05 09:13:03;;;;;;;;;;;4.50;95.70;;;;;;5015550;28;19995;-92
2021/01/05 09:15:28;;;;;;;;;;;4.50;95.70;;;;;;5017723;28;20008;-91
2021/01/05 09:17:54;;;;;;;;;;;4.50;95.70;;;;;;4994690;28;19917;-90
2021/01/05 09:20:21;;;;;;;;;;;4.60;95.70;;;;;;5012965;28;20304;-90
2021/01/05 09:22:47;;;;;;;;;;;4.50;95.70;;;;;;5016767;28;19917;-93
2021/01/05 09:25:13;;;;;;;;;;;4.50;95.70;;;;;;5005585;28;20438;-94
2021/01/05 09:27:38;;;;;;;;;;;4.50;95.60;;;;;;5017557;28;20335;-92
2021/01/05 09:30:07;;;;;;;;;;;4.60;95.70;;;;;;5034717;28;20008;-91
2021/01/05 09:32:34;;;;;;;;;;;4.60;95.70;;;;;;5011854;28;19909;-94
2021/01/05 09:34:59;;;;;;;;;;;4.60;95.80;;;;;;5012827;28;20345;-93
2021/01/05 09:37:25;;;;;;;;;;;4.60;95.80;;;;;;5020394;28;20004;-91
2021/01/05 09:39:51;;;;;;;;;;;4.60;95.80;;;;;;4997436;28;19926;-95
2021/01/05 09:42:17;;;;;;;;;;;4.60;95.70;;;;;;5002411;28;19993;-94
2021/01/05 09:44:42;;;;;;;;;;;4.60;95.50;;;;;;4998918;28;20012;-94
2021/01/05 09:47:08;;;;;;;;;;;4.60;95.50;;;;;;5007653;28;20372;-94
2021/01/05 09:49:33;;;;;;;;;;;4.60;95.50;;;;;;4994496;28;19941;-94
2021/01/05 09:51:59;;;;;;;;;;;4.60;95.40;;;;;;4994921;28;19963;-94
2021/01/05 09:54:25;;;;;;;;;;;4.60;95.40;;;;;;4994060;28;20376;-93
2021/01/05 09:56:52;;;;;;;;;;;4.60;95.40;;;;;;5009572;28;19921;-95
2021/01/05 09:59:18;;;;;;;;;;;4.60;95.50;;;;;;5005847;28;20387;-92
2021/01/05 10:01:43;;;;;;;;;;;4.60;95.40;;;;;;4994505;28;19910;-87
2021/01/05 10:04:09;;;;;;;;;;;4.60;95.30;;;;;;5013650;28;19917;-94
2021/01/05 10:06:34;;;;;;;;;;;4.60;95.20;;;;;;5013255;28;19924;-92
2021/01/05 10:09:07;;;;;;;;;;;4.60;95.10;;;;;;5013324;28;19913;-94
2021/01/05 10:11:33;;;;;;;;;;;4.60;95.10;;;;;;5003648;28;19910;-93
2021/01/05 10:13:58;;;;;;;;;;;4.60;95.00;;;;;;4994895;28;19914;-91
2021/01/05 10:16:24;;;;;;;;;;;4.60;95.00;;;;;;4986040;28;20367;-94
2021/01/05 10:18:50;;;;;;;;;;;4.60;95.00;;;;;;4999217;28;19917;-94
2021/01/05 10:21:18;;;;;;;;;;;4.60;95.10;;;;;;4995026;28;20016;-90
2021/01/05 10:23:43;;;;;;;;;;;4.60;95.10;;;;;;5007915;28;19918;-91
2021/01/05 10:26:09;;;;;;;;;;;4.60;95.00;;;;;;5033073;28;19905;-90
2021/01/05 10:28:36;;;;;;;;;;;4.60;95.10;;;;;;5034063;28;19894;-91
2021/01/05 10:31:01;;;;;;;;;;;4.60;95.00;;;;;;5017622;28;20016;-92
2021/01/05 10:33:27;;;;;;;;;;;4.60;95.00;;;;;;5024607;28;19920;-93
2021/01/05 10:35:52;;;;;;;;;;;4.60;95.00;;;;;;5030942;28;19929;-92
2021/01/05 10:38:19;;;;;;;;;;;4.60;95.00;;;;;;5006539;28;19932;-93
2021/01/05 10:40:45;;;;;;;;;;;4.60;95.00;;;;;;5032527;28;19929;-93
2021/01/05 10:43:10;;;;;;;;;;;4.60;95.10;;;;;;5002052;28;20005;-93
2021/01/05 10:45:40;;;;;;;;;;;4.60;95.00;;;;;;5007620;28;19920;-93
2021/01/05 10:48:05;;;;;;;;;;;4.60;95.10;;;;;;5017957;28;19913;-93
2021/01/05 10:50:31;;;;;;;;;;;4.60;95.00;;;;;;5005236;28;20435;-94
2021/01/05 10:52:56;;;;;;;;;;;4.60;95.00;;;;;;5009430;28;19929;-96
2021/01/05 10:55:22;;;;;;;;;;;4.70;95.10;;;;;;5020470;28;19901;-88
2021/01/05 10:57:48;;;;;;;;;;;4.60;95.00;;;;;;5026939;28;19929;-94
2021/01/05 11:00:15;;;;;;;;;;;4.60;95.10;;;;;;5023789;28;19914;-93
2021/01/05 11:02:40;;;;;;;;;;;4.60;95.10;;;;;;5008685;28;19994;-91
2021/01/05 11:05:06;;;;;;;;;;;4.70;94.90;;;;;;5002524;28;19918;-94
2021/01/05 11:07:32;;;;;;;;;;;4.70;94.80;;;;;;4996613;28;19918;-92
2021/01/05 11:09:58;;;;;;;;;;;4.70;94.90;;;;;;5015717;28;19913;-89
2021/01/05 11:12:27;;;;;;;;;;;4.70;94.80;;;;;;5013837;28;19921;-93
2021/01/05 11:14:52;;;;;;;;;;;4.70;94.90;;;;;;5029599;28;19917;-94
2021/01/05 11:17:18;;;;;;;;;;;4.70;94.90;;;;;;4996711;28;20387;-92
2021/01/05 11:19:44;;;;;;;;;;;4.70;94.80;;;;;;5006944;28;19921;-92
2021/01/05 11:22:16;;;;;;;;;;;4.70;94.80;;;;;;5002250;28;19913;-93
2021/01/05 11:24:42;;;;;;;;;;;4.70;94.90;;;;;;5021902;28;19924;-93
2021/01/05 11:27:08;;;;;;;;;;;4.70;94.90;;;;;;5022333;28;19909;-92
2021/01/05 11:29:34;;;;;;;;;;;4.70;94.80;;;;;;5032031;28;19955;-94
2021/01/05 11:32:01;;;;;;;;;;;4.70;94.80;;;;;;5002600;28;19917;-94
2021/01/05 11:34:27;;;;;;;;;;;4.70;94.80;;;;;;5016748;28;19992;-92
2021/01/05 11:36:53;;;;;;;;;;;4.70;94.90;;;;;;5000322;28;19924;-92
2021/01/05 11:39:19;;;;;;;;;;;4.70;94.80;;;;;;5019855;28;19925;-90
2021/01/05 11:41:45;;;;;;;;;;;4.80;94.90;;;;;;4996032;28;19917;-92
2021/01/05 11:44:14;;;;;;;;;;;4.70;94.90;;;;;;5001289;28;19913;-93
2021/01/05 11:46:40;;;;;;;;;;;4.80;94.90;;;;;;5014562;28;20639;-90
2021/01/05 11:49:05;;;;;;;;;;;4.70;94.90;;;;;;5028650;28;19918;-94
2021/01/05 11:51:32;;;;;;;;;;;4.80;94.90;;;;;;4999118;28;20342;-90
2021/01/05 11:53:58;;;;;;;;;;;4.80;94.90;;;;;;4999676;28;20253;-91
2021/01/05 11:56:24;;;;;;;;;;;4.80;94.90;;;;;;5030785;28;19964;-90
2021/01/05 11:58:50;;;;;;;;;;;4.80;94.90;;;;;;5023345;28;19917;-88
2021/01/05 12:01:16;;;;;;;;;;;4.80;95.00;;;;;;5024499;28;19921;-90
2021/01/05 12:03:42;;;;;;;;;;;4.80;95.00;;;;;;5016824;28;19910;-90
2021/01/05 12:06:15;;;;;;;;;;;4.80;95.00;;;;;;5017156;28;19921;-90
2021/01/05 12:08:42;;;;;;;;;;;4.80;95.00;;;;;;5020816;28;19960;-91
2021/01/05 12:11:07;;;;;;;;;;;4.80;94.90;;;;;;4999208;28;19924;-93
2021/01/05 12:13:33;;;;;;;;;;;4.80;94.90;;;;;;4995898;28;20004;-90
2021/01/05 12:15:58;;;;;;;;;;;4.80;94.90;;;;;;5013821;28;19917;-90
2021/01/05 12:18:24;;;;;;;;;;;4.80;95.00;;;;;;4999048;28;20399;-91
2021/01/05 12:20:49;;;;;;;;;;;4.80;95.00;;;;;;5002086;28;20382;-93
2021/01/05 12:23:15;;;;;;;;;;;4.90;95.00;;;;;;5002618;28;19970;-93
2021/01/05 12:25:47;;;;;;;;;;;4.90;95.10;;;;;;5001870;28;19917;-87
2021/01/05 12:28:13;;;;;;;;;;;4.90;95.20;;;;;;5007151;28;19913;-91
2021/01/05 12:30:39;;;;;;;;;;;4.90;95.20;;;;;;5023791;28;19916;-90
2021/01/05 12:33:04;;;;;;;;;;;4.90;95.20;;;;;;4983791;28;19913;-93
2021/01/05 12:35:30;;;;;;;;;;;4.90;95.20;;;;;;5028739;28;19917;-93
2021/01/05 12:37:55;;;;;;;;;;;4.90;95.20;;;;;;5000984;28;19937;-93
2021/01/05 12:40:21;;;;;;;;;;;4.90;95.10;;;;;;5008883;28;19994;-92
2021/01/05 12:42:47;;;;;;;;;;;4.90;95.10;;;;;;5015983;28;19917;-92
2021/01/05 12:45:12;;;;;;;;;;;4.90;95.00;;;;;;5020258;28;19917;-92
2021/01/05 12:47:38;;;;;;;;;;;4.90;95.00;;;;;;5008232;28;19910;-93
2021/01/05 12:50:04;;;;;;;;;;;4.90;95.10;;;;;;5014534;28;19909;-91
2021/01/05 12:52:29;;;;;;;;;;;4.90;95.10;;;;;;5035796;28;19914;-94
2021/01/05 12:54:55;;;;;;;;;;;4.90;95.20;;;;;;5018184;28;19924;-94
2021/01/05 12:57:20;;;;;;;;;;;5.00;95.20;;;;;;5015708;28;20502;-92
2021/01/05 12:59:46;;;;;;;;;;;5.00;95.20;;;;;;4997342;28;19963;-90
2021/01/05 13:02:17;;;;;;;;;;;5.00;95.10;;;;;;4998059;28;20370;-91
2021/01/05 13:04:42;;;;;;;;;;;5.00;95.00;;;;;;5003991;28;19905;-91
2021/01/05 13:07:08;;;;;;;;;;;5.00;95.00;;;;;;5013220;28;19912;-93
2021/01/05 13:09:33;;;;;;;;;;;5.00;95.10;;;;;;5019455;28;19968;-93
2021/01/05 13:12:00;;;;;;;;;;;5.00;95.20;;;;;;4997128;28;19914;-92
2021/01/05 13:14:26;;;;;;;;;;;5.00;95.30;;;;;;5008858;28;19913;-94
2021/01/05 13:16:52;;;;;;;;;;;5.00;95.20;;;;;;5005701;28;19921;-94
2021/01/05 13:19:19;;;;;;;;;;;5.00;95.20;;;;;;5024525;28;19972;-92
2021/01/05 13:21:46;;;;;;;;;;;5.00;95.10;;;;;;4999492;28;19913;-93
2021/01/05 13:24:17;;;;;;;;;;;5.00;95.10;;;;;;5016076;28;19917;-94
2021/01/05 13:26:43;;;;;;;;;;;5.00;95.10;;;;;;5002405;28;19909;-95
2021/01/05 13:29:08;;;;;;;;;;;5.00;95.10;;;;;;4997014;28;19925;-94
2021/01/05 13:31:48;;;;;;;;;;;5.10;95.10;;;;;;5000547;28;19914;-93
2021/01/05 13:34:18;;;;;;;;;;;5.00;95.00;;;;;;5006958;28;19913;-94
2021/01/05 13:36:44;;;;;;;;;;;5.00;95.00;;;;;;5010387;28;20373;-93
2021/01/05 13:39:13;;;;;;;;;;;5.00;95.00;;;;;;5015420;28;20016;-92
2021/01/05 13:41:38;;;;;;;;;;;5.00;95.00;;;;;;5014913;28;19913;-93
2021/01/05 13:44:05;;;;;;;;;;;5.00;95.00;;;;;;5028421;28;19955;-92
2021/01/05 13:46:35;;;;;;;;;;;5.00;95.00;;;;;;5031445;28;19978;-93
2021/01/05 13:49:00;;;;;;;;;;;5.00;95.00;;;;;;5033880;28;19954;-94
2021/01/05 13:51:34;;;;;;;;;;;5.00;94.80;;;;;;5003179;28;20362;-94
2021/01/05 13:53:59;;;;;;;;;;;5.00;94.60;;;;;;5014644;28;19937;-93
2021/01/05 13:56:25;;;;;;;;;;;5.00;94.60;;;;;;4996839;28;19968;-94
2021/01/05 13:58:51;;;;;;;;;;;5.00;94.70;;;;;;4995826;28;19921;-94
2021/01/05 14:01:18;;;;;;;;;;;5.00;94.70;;;;;;5011227;28;20290;-94
2021/01/05 14:03:44;;;;;;;;;;;5.00;94.60;;;;;;4997681;28;19918;-88
2021/01/05 14:06:14;;;;;;;;;;;5.00;94.70;;;;;;5018236;28;19960;-89
2021/01/05 14:08:40;;;;;;;;;;;5.00;94.70;;;;;;5017501;28;19959;-93
2021/01/05 14:11:07;;;;;;;;;;;5.00;94.60;;;;;;5036394;28;20227;-93
2021/01/05 14:13:33;;;;;;;;;;;5.00;94.70;;;;;;5034535;28;19928;-93
2021/01/05 14:15:59;;;;;;;;;;;5.00;94.70;;;;;;5050572;28;19925;-92
2021/01/05 14:18:24;;;;;;;;;;;5.00;94.80;;;;;;5014572;28;19957;-93
2021/01/05 14:20:50;;;;;;;;;;;5.00;94.80;;;;;;5049491;28;19905;-89
2021/01/05 14:23:15;;;;;;;;;;;5.00;94.80;;;;;;5025860;28;19901;-92
2021/01/05 14:25:41;;;;;;;;;;;5.00;94.80;;;;;;5046723;28;19913;-89
2021/01/05 14:28:06;;;;;;;;;;;5.00;94.80;;;;;;5052769;28;19913;-91
2021/01/05 14:30:32;;;;;;;;;;;5.00;94.90;;;;;;5019875;28;19913;-90
2021/01/05 14:32:57;;;;;;;;;;;5.00;94.80;;;;;;5022096;28;19924;-93
2021/01/05 14:35:23;;;;;;;;;;;5.00;94.70;;;;;;5029055;28;19921;-93
2021/01/05 14:37:52;;;;;;;;;;;5.00;94.90;;;;;;5009552;28;20298;-94
2021/01/05 14:40:18;;;;;;;;;;;5.10;94.90;;;;;;5012596;28;20012;-92
2021/01/05 14:42:43;;;;;;;;;;;5.00;94.90;;;;;;5032022;28;19994;-96
2021/01/05 14:45:09;;;;;;;;;;;5.10;94.90;;;;;;4999322;28;19956;-94
2021/01/05 14:47:34;;;;;;;;;;;5.00;94.90;;;;;;5028535;28;19913;-93
2021/01/05 14:50:00;;;;;;;;;;;5.00;94.90;;;;;;5003685;28;19914;-91